Terminal Aerodrome Forecast
Issued by NWS Green Bay, WI

Home | Current Version | Previous Version | Graphics & Text | Print | Product List | Glossary On
Versions: 1 2 3 4 5 6 7 8 9 10 11 12 13 14 15 16 17 18 19 20 21 22 23 24 25 26 27 28 29 30 31 32 33 34 35 36 37 38
000
FTUS43 KGRB 251800 AAA
TAFGRB
TAF AMD
KGRB 251804Z 2518/2618 04015G23KT P6SM -SN BKN030
     FM251900 03012G20KT P6SM SCT035 SCT120
     FM260000 03009G15KT P6SM SCT250
     FM260600 VRB03KT P6SM SCT100 BKN200
     FM261400 19007KT P6SM OVC070
     FM261700 19011KT 3SM -SN OVC030=

USA.gov is the U.S. government's official web portal to all federal, state and local government web resources and services.